Thursday, April 19, 2018, 5:06 PM EDT
Back to Local

KAKR, Akron Fulton International

Location: Akron, OH, United States Lat: 41.033
Local Time: 5:06 PM EDT (21:06 GMT) Lon: -81.467
Time Zone: US/Eastern Elev: 1069 ft

Show me the last for .
Show Decoded

2018-04-19 15:54 METAR KAKR 191954Z AUTO 32015G24KT 10SM BKN043 08/M03 A3013 RMK AO2 SLP208
                 T00831033 =
2018-04-19 14:54 METAR KAKR 191854Z AUTO 31012G22KT 10SM BKN039 BKN048 07/M02 A3012 RMK AO2
                 SLP206 T00671022 =
2018-04-19 13:54 METAR KAKR 191754Z AUTO 32013KT 10SM OVC032 05/M02 A3011 RMK AO2 SLP203 60000
                 T00501022 10050 20006 53021 =
2018-04-19 13:23 METAR KAKR 191723Z AUTO 34015G22KT 10SM SCT028 OVC034 04/M02 A3010 RMK AO2
                 T00441022 =
2018-04-19 12:54 METAR KAKR 191654Z AUTO 32014KT 10SM BKN029 OVC035 04/M02 A3008 RMK AO2 SLP194
                 T00441022 =
2018-04-19 11:54 METAR KAKR 191554Z AUTO 33017G23KT 10SM SCT022 BKN027 OVC036 03/M02 A3005 RMK
                 AO2 SLP182 T00331017 =
2018-04-19 11:50 METAR KAKR 191550Z AUTO 33015G23KT 10SM BKN022 BKN029 OVC036 03/M02 A3005 RMK
                 AO2 =
2018-04-19 11:37 METAR KAKR 191537Z AUTO 33015G21KT 10SM FEW017 SCT027 OVC036 03/M02 A3003 RMK
                 AO2 T00331017 =
2018-04-19 10:54 METAR KAKR 191454Z AUTO 31008KT 10SM SCT018 BKN023 OVC037 02/M01 A3001 RMK AO2
                 SLP170 60000 T00221011 53027 =
2018-04-19 10:46 METAR KAKR 191446Z AUTO 31009KT 10SM SCT018 BKN026 OVC037 02/M01 A3001 RMK AO2
                 T00221011 =
2018-04-19 10:14 METAR KAKR 191414Z AUTO 32009KT 10SM FEW021 SCT027 OVC034 02/M02 A2999 RMK AO2
                 T00171022 =
2018-04-19 10:06 METAR KAKR 191406Z AUTO 34010KT 10SM FEW020 BKN027 OVC034 02/M02 A2999 RMK AO2
                 T00171017 =
2018-04-19 09:54 METAR KAKR 191354Z AUTO 33011KT 10SM FEW018 SCT025 OVC034 02/M02 A2998 RMK AO2
                 SLP157 T00171017 =
2018-04-19 09:47 METAR KAKR 191347Z AUTO 34009G17KT 10SM FEW015 BKN036 OVC043 02/M02 A2997 RMK
                 AO2 T00171017 =
2018-04-19 09:29 METAR KAKR 191329Z AUTO 33009G16KT 10SM SCT014 BKN020 OVC042 02/M01 A2996 RMK
                 AO2 T00171011 =
2018-04-19 08:54 METAR KAKR 191254Z AUTO 34011KT 10SM FEW008 BKN012 BKN031 01/M01 A2993 RMK AO2
                 SNE46 SLP142 P0000 T00111011 =
2018-04-19 08:49 METAR KAKR 191249Z AUTO 33010KT 9SM FEW007 BKN012 OVC120 01/M01 A2993 RMK AO2
                 SNE46 P0000 =
2018-04-19 08:41 METAR KAKR 191241Z AUTO 34011G19KT 3SM -SN BR SCT008 BKN016 OVC042 01/M01 A2993
                 RMK AO2 P0000 T00111011 =
2018-04-19 08:38 METAR KAKR 191238Z AUTO 34011G19KT 2SM -SN BR SCT008 BKN014 OVC043 01/M01 A2993
                 RMK AO2 P0000 T00111011 =
2018-04-19 08:31 METAR KAKR 191231Z AUTO 33014G19KT 1SM -SN BR BKN008 OVC014 01/M01 A2992 RMK AO2
                 P0000 T00111006 =
2018-04-19 08:21 METAR KAKR 191221Z AUTO 33008KT 1/2SM SN FG SCT007 OVC012 01/M01 A2991 RMK AO2
                 P0000 T00061006 =
2018-04-19 07:54 METAR KAKR 191154Z AUTO 34009KT 3/4SM -SN BR BKN007 OVC012 01/M01 A2989 RMK AO2
                 SLP128 P0001 60002 70002 I6001 T00061006 10028 20006 53028 =
2018-04-19 07:38 METAR KAKR 191138Z AUTO 34010KT 3/4SM -SN BR BKN007 OVC012 01/M01 A2988 RMK AO2
                 P0001 T00111006 =
2018-04-19 07:06 METAR KAKR 191106Z AUTO 34008KT 1 1/2SM -SN BR BKN007 BKN011 OVC022 01/M01 A2986
                 RMK AO2 P0001 T00111006 =
2018-04-19 06:54 METAR KAKR 191054Z AUTO 36009KT 4SM -SN BR BKN007 OVC033 01/M01 A2985 RMK AO2
                 UPB03E21SNE03B30 PRESRR SLP112 P0000 I1001 T00111006 =
2018-04-19 06:34 METAR KAKR 191034Z AUTO 34008KT 5SM -SN BR BKN009 BKN012 OVC041 01/M01 A2983 RMK
                 AO2 UPB03E21SNE03B30 P0000 I1001 T00111006 =
2018-04-19 06:22 METAR KAKR 191022Z AUTO 36008KT 7SM SCT010 BKN014 OVC030 01/M01 A2982 RMK AO2
                 UPB03E21SNE03 P0000 I1001 T00111006 =
2018-04-19 06:15 METAR KAKR 191015Z AUTO 01009KT 6SM UP BR SCT008 BKN030 OVC043 01/M01 A2982 RMK
                 AO2 UPB03SNE03 P0000 I1000 T00111006 =
2018-04-19 05:54 METAR KAKR 190954Z AUTO 35011KT 3SM -SN BR BKN008 OVC017 01/M01 A2981 RMK AO2
                 RAE10SNB10 SLP098 P0001 T00111006 =
2018-04-19 05:50 METAR KAKR 190950Z AUTO 35009KT 2 1/2SM -SN BR BKN006 OVC017 01/00 A2981 RMK AO2
                 RAE10SNB10 P0001 =
2018-04-19 05:39 METAR KAKR 190939Z AUTO 35010KT 2 1/2SM -SN BR SCT008 BKN012 OVC019 02/00 A2980
                 RMK AO2 RAE10SNB10 P0001 T00170000 =
2018-04-19 05:28 METAR KAKR 190928Z AUTO 36010KT 3SM -SN BR SCT009 BKN021 OVC027 02/00 A2979 RMK
                 AO2 RAE10SNB10 P0000 T00170000 =
2018-04-19 04:54 METAR KAKR 190854Z AUTO 01008KT 9SM -RA OVC012 02/M01 A2977 RMK AO2
                 RAB51UPB52E53 SLP084 P0000 60000 T00221006 55002 =
2018-04-19 04:41 METAR KAKR 190841Z AUTO 01008KT 10SM OVC014 02/M01 A2977 RMK AO2 T00221011 =
2018-04-19 03:54 METAR KAKR 190754Z AUTO 02006KT 10SM OVC015 03/M01 A2975 RMK AO2 SLP078
                 T00281011 =
2018-04-19 03:44 METAR KAKR 190744Z AUTO 01008KT 10SM BKN015 OVC033 03/M01 A2975 RMK AO2
                 T00281006 =
2018-04-19 02:54 METAR KAKR 190654Z AUTO 35005KT 10SM OVC038 03/M01 A2976 RMK AO2 SLP083
                 T00281006 =
2018-04-19 01:54 METAR KAKR 190554Z AUTO 35006KT 10SM OVC044 03/M01 A2977 RMK AO2 RAB0456E08
                 SLP086 P0000 60000 T00281006 10094 20028 51016 =
2018-04-19 00:54 METAR KAKR 190454Z AUTO 03006KT 10SM OVC100 03/M01 A2976 RMK AO2 RAE34UPB21E36
                 SLP083 P0000 T00281006 401061017 =
2018-04-18 23:54 METAR KAKR 190354Z AUTO 04008KT 10SM -RA FEW040 BKN070 OVC090 03/M01 A2975 RMK
                 AO2 RAB52 SLP080 P0000 T00281006 =
2018-04-18 22:54 METAR KAKR 190254Z AUTO 04010KT 10SM OVC070 04/01 A2973 RMK AO2 RAB02E53 SLP072
                 P0000 60000 T00390006 56012 =
2018-04-18 21:54 METAR KAKR 190154Z AUTO 02008KT 10SM OVC037 05/01 A2974 RMK AO2 SLP076 T00500006
                 =
2018-04-18 20:54 METAR KAKR 190054Z AUTO 02010KT 10SM BKN037 OVC046 06/01 A2972 RMK AO2 RAB05E32
                 SLP071 P0000 T00560011 =
2018-04-18 19:54 METAR KAKR 182354Z AUTO 29004KT 10SM BKN041 OVC050 09/01 A2976 RMK AO2 RAE11
                 SLP084 P0000 60000 T00940006 10106 20078 53007 =
2018-04-18 18:54 METAR KAKR 182254Z AUTO 19004KT 10SM -RA OVC045 09/00 A2975 RMK AO2 RAB00 SLP079
                 P0000 T00940000 =
2018-04-18 17:54 METAR KAKR 182154Z AUTO 08004KT 10SM BKN045 OVC065 10/M01 A2973 RMK AO2 SLP072
                 T01001006 =

Support USWX by starting your Amazon purchase here.